< < Back
Terminal Aerodrome Forecast


Current Version              Previous Versions:   1  2  3  4  5  6  7  8  9  

Terminal Aerodrome Forecast

446
FTUS42 KILM 282329
TAFFLO
TAF
KFLO 282329Z 2900/2924 04004KT P6SM -SHRA SCT015 SCT035 BKN090
      TEMPO 2905/2909 3SM SHRA BR SCT006 BKN015
     FM290900 03009KT 6SM BR VCSH BKN005 OVC015
     FM291300 06010KT 3SM SHRA BR OVC015=

Latest METAR

508
SAUS70 KWBC 292100 RRA
MTRFLO
METAR KFLO 292053Z 11015KT 10SM CLR 28/20 A2994 RMK AO2 SLP136 60000
T02830200 55002


USA.gov is the U.S. government's official web portal to all federal, state and local government web resources and services.